Airfield :
LOGIN :

Register | Disclaimer

   EN    FR    IT 

 










Legend :    VFR   Marginal VFR   IFR   Intensive IFR   Very Intensive IFR
Visi :
Ceiling :
>= 8 km
>= 3000ft
5 to 8 km
1000 to 3000 ft
1500m to 5 km
500 to 1000 ft
800 to 1500m
200 to 500 ft
< 800m
< 200 ft
Symbols :   Thunderstorms  Fog  Heavy snow  Heavy precipitations  Wind > 20 kt
SIGMETs :     Misc.  Thunderstorms  Icing  Turbulence  Mountain Waves  Volcanic Ashes






- Airport Elevation : 257 ft
- IATA code : MAN


EGCC - Manchester

CURRENT METAR :
  • 290620Z AUTO 21007KT 9999 SCT024 13/11 Q1005

EXPIRED METARs :
  • 290550Z AUTO 22007KT 180V240 9999 SCT022 BKN027 12/10 Q1005
  • 290520Z AUTO 22009KT 9999 FEW020 BKN033 12/10 Q1005
  • 290450Z AUTO 22009KT 9999 FEW023/// SCT028/// BKN034/// //////TCU 12/10 Q1005
  • 290420Z AUTO 22008KT 9999 SCT020/// SCT025/// BKN032/// //////TCU 12/10 Q1005 NOSIG
  • 290350Z AUTO 23009KT 9999 FEW026/// SCT034/// BKN041/// //////CB 12/11 Q1005 NOSIG

TAF TAF EGCC
Valid from the 29 at 06:00 until the 30 at 12:00 UTC


290454Z 2906/3012 24012KT 9999 SCT025
TEMPO 2906/2915 26015G25KT
PROB30
TEMPO 2906/2908 BKN012
PROB30
TEMPO 2912/2914 7000 -RA BKN012
BECMG 2921/2924 VRB04KT
TEMPO 3001/3012 6000 RA SHRA
PROB30
TEMPO 3003/3010 4000 +RA +SHRA BKN014
ATIS : +44 161 499 2324



MET'MAP, your aeronautical weather chart ! - Copyright ORBIFLY December 2007 - Disclaimer

ORBIFLY MET'MAP TEAM :

Programming & Development : Alexandra Zaïnal
Concept & original design : Baudouin d'Aumeries
Assistance for programming : Marc-Olivier Méhu
Technical & hardware support : Manuel Goepfert

Contact : metmap@orbifly.com




SOURCES & CREDITS :

   NOAA